Time;durP1;ratioP1;P1;durP2;ratioP2;P2;SDS_P1;SDS_P2;PMS_P1;PMS_P2;Temp;Humidity;BMP_temperature;BMP_pressure;BME280_temperature;BME280_humidity;BME280_pressure;Samples;Min_cycle;Max_cycle;Signal;HPM_P1;HPM_P2
2022/03/11 00:01:13;;;;;;;15.20;9.10;;;11.20;38.60;;;;;;5115576;28;20466;-74
2022/03/11 00:03:41;;;;;;;14.50;9.53;;;11.10;38.60;;;;;;5115852;28;20443;-74
2022/03/11 00:06:08;;;;;;;11.47;10.27;;;11.10;38.70;;;;;;5115527;28;20446;-74
2022/03/11 00:08:34;;;;;;;13.10;9.47;;;11.10;38.60;;;;;;5115342;28;20482;-74
2022/03/11 00:11:01;;;;;;;13.97;10.17;;;11.10;38.70;;;;;;5115335;28;20465;-74
2022/03/11 00:13:28;;;;;;;12.90;9.90;;;11.10;38.80;;;;;;5115438;28;20450;-74
2022/03/11 00:15:54;;;;;;;16.63;10.80;;;11.00;38.80;;;;;;5114996;28;20954;-74
2022/03/11 00:18:21;;;;;;;12.93;9.87;;;11.00;38.70;;;;;;5115146;28;20438;-74
2022/03/11 00:20:49;;;;;;;10.90;9.30;;;11.00;38.70;;;;;;5114723;28;20998;-74
2022/03/11 00:23:16;;;;;;;13.07;9.67;;;11.00;38.80;;;;;;5115140;28;20454;-74
2022/03/11 00:25:43;;;;;;;11.17;9.40;;;11.00;38.70;;;;;;5115083;28;20795;-74
2022/03/11 00:28:09;;;;;;;14.00;10.43;;;11.00;38.80;;;;;;5114713;28;20471;-74
2022/03/11 00:30:36;;;;;;;16.50;11.27;;;11.00;38.80;;;;;;5114926;28;20466;-74
2022/03/11 00:33:03;;;;;;;15.17;10.77;;;10.90;39.00;;;;;;5114939;28;20450;-74
2022/03/11 00:35:32;;;;;;;12.07;9.30;;;10.80;39.00;;;;;;5114917;28;20450;-74
2022/03/11 00:38:00;;;;;;;13.83;9.20;;;10.80;39.00;;;;;;5114887;28;20469;-74
2022/03/11 00:40:27;;;;;;;12.53;9.50;;;10.80;39.00;;;;;;5114512;28;20471;-74
2022/03/11 00:42:54;;;;;;;13.23;9.70;;;10.80;39.00;;;;;;5114764;28;20468;-74
2022/03/11 00:45:22;;;;;;;14.93;10.07;;;10.80;39.10;;;;;;5114430;28;20936;-74
2022/03/11 00:47:49;;;;;;;11.60;8.53;;;10.70;39.10;;;;;;5114121;28;20488;-74
2022/03/11 00:50:15;;;;;;;10.70;9.47;;;10.70;39.10;;;;;;5114561;28;20497;-74
2022/03/11 00:52:42;;;;;;;10.37;8.23;;;10.70;39.00;;;;;;5114582;28;20442;-74
2022/03/11 00:55:12;;;;;;;14.50;10.47;;;10.70;38.90;;;;;;5114544;28;20478;-74
2022/03/11 00:57:38;;;;;;;10.20;8.93;;;10.70;39.10;;;;;;5114245;28;20439;-74
2022/03/11 01:00:06;;;;;;;10.67;8.77;;;10.70;39.20;;;;;;5114076;28;20831;-74
2022/03/11 01:02:36;;;;;;;11.93;9.33;;;10.70;39.10;;;;;;5114412;28;20438;-74
2022/03/11 01:05:04;;;;;;;12.23;9.77;;;10.70;39.10;;;;;;5114345;28;20470;-74
2022/03/11 01:07:31;;;;;;;10.63;8.87;;;10.70;39.20;;;;;;5115134;28;20447;-74
2022/03/11 01:09:58;;;;;;;14.03;8.50;;;10.60;39.10;;;;;;5114263;28;20469;-74
2022/03/11 01:12:27;;;;;;;15.77;9.00;;;10.60;39.10;;;;;;5114336;28;20439;-74
2022/03/11 01:14:54;;;;;;;11.73;9.20;;;10.60;39.20;;;;;;5113945;28;20449;-74
2022/03/11 01:17:21;;;;;;;10.40;8.67;;;10.60;39.20;;;;;;5114170;28;20454;-74
2022/03/11 01:19:47;;;;;;;12.03;9.50;;;10.60;39.20;;;;;;5113907;28;20450;-74
2022/03/11 01:22:14;;;;;;;9.80;7.97;;;10.50;39.30;;;;;;5114115;28;20453;-74
2022/03/11 01:24:41;;;;;;;9.40;8.20;;;10.50;39.30;;;;;;5113779;28;20445;-74
2022/03/11 01:27:08;;;;;;;9.50;8.50;;;10.50;39.30;;;;;;5114067;28;20439;-74
2022/03/11 01:29:36;;;;;;;10.70;8.30;;;10.50;39.30;;;;;;5113612;28;20983;-74
2022/03/11 01:32:03;;;;;;;8.77;7.53;;;10.50;39.10;;;;;;5114008;28;20446;-74
2022/03/11 01:34:29;;;;;;;10.23;7.70;;;10.40;39.10;;;;;;5114054;28;20450;-74
2022/03/11 01:36:57;;;;;;;10.33;8.40;;;10.50;39.30;;;;;;5113941;28;20443;-74
2022/03/11 01:39:23;;;;;;;11.10;8.63;;;10.40;39.00;;;;;;5113713;28;20446;-74
2022/03/11 01:41:50;;;;;;;10.80;8.77;;;10.40;39.00;;;;;;5114043;28;20439;-74
2022/03/11 01:44:17;;;;;;;8.90;7.37;;;10.40;38.80;;;;;;5115267;28;20449;-74
2022/03/11 01:46:45;;;;;;;10.23;7.90;;;10.40;39.10;;;;;;5114037;28;20521;-74
2022/03/11 01:49:12;;;;;;;10.97;8.20;;;10.30;39.10;;;;;;5113382;28;20482;-73
2022/03/11 01:51:41;;;;;;;9.70;7.57;;;10.30;39.20;;;;;;5113871;28;20443;-74
2022/03/11 01:54:08;;;;;;;11.33;7.60;;;10.30;39.30;;;;;;5113816;28;20438;-74
2022/03/11 01:56:36;;;;;;;8.67;7.60;;;10.30;39.90;;;;;;5113468;28;20936;-74
2022/03/11 01:59:05;;;;;;;11.80;8.60;;;10.30;39.20;;;;;;5114144;28;20439;-74
2022/03/11 02:01:32;;;;;;;12.00;8.37;;;10.30;39.20;;;;;;5117937;28;20443;-74
2022/03/11 02:04:00;;;;;;;9.77;7.30;;;10.30;39.20;;;;;;5117862;28;20442;-74
2022/03/11 02:06:29;;;;;;;9.23;7.30;;;10.30;39.20;;;;;;5117812;28;20446;-74
2022/03/11 02:08:58;;;;;;;8.27;7.47;;;10.30;39.30;;;;;;5117682;28;20478;-74
2022/03/11 02:11:25;;;;;;;8.90;7.60;;;10.20;39.40;;;;;;5117727;28;20557;-74
2022/03/11 02:13:54;;;;;;;9.07;7.80;;;10.20;39.50;;;;;;5117727;28;20454;-74
2022/03/11 02:16:22;;;;;;;9.93;7.63;;;10.20;39.60;;;;;;5117668;28;20438;-74
2022/03/11 02:18:50;;;;;;;8.87;7.97;;;10.20;39.50;;;;;;5121904;28;20435;-74
2022/03/11 02:21:21;;;;;;;8.33;6.97;;;10.20;39.50;;;;;;5118413;28;20475;-74
2022/03/11 02:23:50;;;;;;;10.97;8.10;;;10.20;39.60;;;;;;5117491;28;20449;-74
2022/03/11 02:26:19;;;;;;;9.43;8.30;;;10.20;39.40;;;;;;5117434;28;20442;-74
2022/03/11 02:28:46;;;;;;;11.00;7.57;;;10.20;39.60;;;;;;5117288;28;20596;-74
2022/03/11 02:31:13;;;;;;;9.63;7.67;;;10.20;39.70;;;;;;5117261;28;20489;-74
2022/03/11 02:33:40;;;;;;;12.57;7.53;;;10.20;39.70;;;;;;5116970;28;20439;-74
2022/03/11 02:36:09;;;;;;;8.87;7.97;;;10.10;39.80;;;;;;5117209;28;20443;-74
2022/03/11 02:38:36;;;;;;;9.10;8.20;;;10.10;39.90;;;;;;5116890;28;20496;-74
2022/03/11 02:41:05;;;;;;;10.67;8.00;;;10.10;39.90;;;;;;5116940;28;20489;-74
2022/03/11 02:43:32;;;;;;;9.87;7.80;;;10.00;39.90;;;;;;5117144;28;20434;-74
2022/03/11 02:45:59;;;;;;;8.60;7.30;;;10.00;39.90;;;;;;5117064;28;20791;-74
2022/03/11 02:48:25;;;;;;;9.90;8.03;;;10.00;40.20;;;;;;5116717;28;20986;-74
2022/03/11 02:50:52;;;;;;;9.80;8.37;;;10.00;40.20;;;;;;5116910;28;20463;-74
2022/03/11 02:53:19;;;;;;;9.80;7.63;;;10.00;40.20;;;;;;5116911;28;20446;-74
2022/03/11 02:55:46;;;;;;;9.40;7.97;;;9.90;41.10;;;;;;5116869;28;20462;-74
2022/03/11 02:58:14;;;;;;;8.53;7.63;;;9.90;41.20;;;;;;5117541;28;20442;-74
2022/03/11 03:00:40;;;;;;;10.40;7.50;;;9.90;41.30;;;;;;5116408;28;20976;-74
2022/03/11 03:03:07;;;;;;;13.73;8.03;;;9.90;41.40;;;;;;5116775;28;20438;-74
2022/03/11 03:05:34;;;;;;;12.43;8.27;;;9.90;41.50;;;;;;5116695;28;20442;-74
2022/03/11 03:08:01;;;;;;;9.37;7.73;;;9.90;41.60;;;;;;5116560;28;20446;-74
2022/03/11 03:10:28;;;;;;;8.87;7.77;;;9.90;41.50;;;;;;5116427;28;20458;-74
2022/03/11 03:12:54;;;;;;;9.70;7.40;;;9.80;41.70;;;;;;5115975;28;20443;-74
2022/03/11 03:15:22;;;;;;;9.97;8.20;;;9.80;41.90;;;;;;5116187;28;20936;-74
2022/03/11 03:17:49;;;;;;;11.50;7.87;;;9.80;41.90;;;;;;5116440;28;20443;-74
2022/03/11 03:20:16;;;;;;;10.17;7.90;;;9.80;41.80;;;;;;5116324;28;20459;-74
2022/03/11 03:22:43;;;;;;;11.50;8.73;;;9.80;41.80;;;;;;5116406;28;20474;-74
2022/03/11 03:25:10;;;;;;;9.40;8.40;;;9.80;42.00;;;;;;5116333;28;20435;-74
2022/03/11 03:27:37;;;;;;;11.10;8.17;;;9.80;41.90;;;;;;5116232;28;20449;-74
2022/03/11 03:30:05;;;;;;;9.17;8.10;;;9.80;42.30;;;;;;5116047;28;20493;-74
2022/03/11 03:32:33;;;;;;;9.47;8.30;;;9.70;42.30;;;;;;5116203;28;20442;-74
2022/03/11 03:35:00;;;;;;;11.17;7.90;;;9.70;42.30;;;;;;5116118;28;20451;-74
2022/03/11 03:37:27;;;;;;;9.37;7.70;;;9.70;42.30;;;;;;5115749;28;20443;-74
2022/03/11 03:39:53;;;;;;;9.90;8.17;;;9.70;42.20;;;;;;5115737;28;20466;-74
2022/03/11 03:42:20;;;;;;;10.03;7.60;;;9.70;42.40;;;;;;5115729;28;20935;-74
2022/03/11 03:44:47;;;;;;;9.97;8.10;;;9.70;42.60;;;;;;5115890;28;20443;-74
2022/03/11 03:47:14;;;;;;;10.03;8.40;;;9.60;42.70;;;;;;5115573;28;20947;-74
2022/03/11 03:49:42;;;;;;;10.90;8.43;;;9.60;42.80;;;;;;5115666;28;20483;-74
2022/03/11 03:52:11;;;;;;;12.57;9.53;;;9.60;42.80;;;;;;5115791;28;20446;-74
2022/03/11 03:54:39;;;;;;;10.83;8.73;;;9.60;42.90;;;;;;5116022;28;20454;-74
2022/03/11 03:57:06;;;;;;;10.70;7.90;;;9.60;42.70;;;;;;5115721;28;20445;-74
2022/03/11 03:59:32;;;;;;;10.17;8.30;;;9.50;43.00;;;;;;5115602;28;20463;-74
2022/03/11 04:01:59;;;;;;;13.73;8.33;;;9.50;42.40;;;;;;5115306;28;20949;-74
2022/03/11 04:04:26;;;;;;;11.53;9.17;;;9.50;42.90;;;;;;5115554;28;20449;-74
2022/03/11 04:06:54;;;;;;;10.60;8.97;;;9.50;43.10;;;;;;5115516;28;20447;-74
2022/03/11 04:09:21;;;;;;;11.27;8.77;;;9.50;43.00;;;;;;5115291;28;20475;-74
2022/03/11 04:11:48;;;;;;;13.40;8.30;;;9.50;43.30;;;;;;5115499;28;20540;-74
2022/03/11 04:14:14;;;;;;;10.40;9.00;;;9.50;43.50;;;;;;5115394;28;20439;-74
2022/03/11 04:16:41;;;;;;;12.70;9.13;;;9.40;43.40;;;;;;5115310;28;20454;-74
2022/03/11 04:19:08;;;;;;;11.40;9.03;;;9.40;43.40;;;;;;5115203;28;20441;-73
2022/03/11 04:21:35;;;;;;;11.03;8.63;;;9.40;43.40;;;;;;5115210;28;20439;-74
2022/03/11 04:24:12;;;;;;;10.20;8.70;;;9.40;43.60;;;;;;5114204;28;20428;-74
2022/03/11 04:26:40;;;;;;;12.50;9.50;;;9.40;43.70;;;;;;5115198;28;20462;-74
2022/03/11 04:29:07;;;;;;;14.47;8.40;;;9.40;43.60;;;;;;5114687;28;20477;-74
2022/03/11 04:31:33;;;;;;;10.13;8.40;;;9.40;43.90;;;;;;5114685;28;20451;-74
2022/03/11 04:34:00;;;;;;;13.17;9.17;;;9.40;44.00;;;;;;5114944;28;20442;-74
2022/03/11 04:36:28;;;;;;;10.30;7.97;;;9.40;44.00;;;;;;5114933;28;20443;-74
2022/03/11 04:38:55;;;;;;;10.70;9.10;;;9.40;44.10;;;;;;5114865;28;20451;-74
2022/03/11 04:41:23;;;;;;;13.80;10.20;;;9.40;44.00;;;;;;5114604;28;20477;-74
2022/03/11 04:43:50;;;;;;;12.70;9.63;;;9.30;43.60;;;;;;5114804;28;20450;-74
2022/03/11 04:46:16;;;;;;;11.93;8.20;;;9.30;43.80;;;;;;5114456;28;20817;-74
2022/03/11 04:48:47;;;;;;;13.53;8.40;;;9.20;43.90;;;;;;5114661;28;20454;-74
2022/03/11 04:51:14;;;;;;;11.17;9.23;;;9.20;43.90;;;;;;5114389;28;21058;-74
2022/03/11 04:53:41;;;;;;;12.27;9.87;;;9.20;44.30;;;;;;5114657;28;20443;-74
2022/03/11 04:56:08;;;;;;;13.60;10.33;;;9.20;44.20;;;;;;5114566;28;20439;-74
2022/03/11 04:58:36;;;;;;;14.13;10.30;;;9.20;44.30;;;;;;5114562;28;20779;-74
2022/03/11 05:01:03;;;;;;;10.63;9.10;;;9.10;44.20;;;;;;5114424;28;20466;-74
2022/03/11 05:03:29;;;;;;;13.00;9.50;;;9.10;44.30;;;;;;5114103;28;20936;-74
2022/03/11 05:05:56;;;;;;;12.07;9.70;;;9.00;44.30;;;;;;5114364;28;20443;-74
2022/03/11 05:08:23;;;;;;;10.30;8.97;;;9.00;44.20;;;;;;5114309;28;20443;-74
2022/03/11 05:10:49;;;;;;;12.60;8.57;;;9.00;44.60;;;;;;5114172;28;20565;-73
2022/03/11 05:13:16;;;;;;;12.30;9.70;;;9.00;44.70;;;;;;5114351;28;20873;-73
2022/03/11 05:15:44;;;;;;;15.40;10.50;;;9.00;44.70;;;;;;5114310;28;20447;-73
2022/03/11 05:18:12;;;;;;;12.13;9.60;;;9.00;44.50;;;;;;5114185;28;20476;-74
2022/03/11 05:20:38;;;;;;;15.07;9.97;;;8.90;44.80;;;;;;5113797;28;20463;-74
2022/03/11 05:23:05;;;;;;;13.57;10.50;;;8.90;44.60;;;;;;5114118;28;20446;-74
2022/03/11 05:25:32;;;;;;;13.53;10.20;;;8.90;44.70;;;;;;5114046;28;20445;-74
2022/03/11 05:27:59;;;;;;;10.50;9.20;;;8.90;44.60;;;;;;5113758;28;20924;-74
2022/03/11 05:30:26;;;;;;;13.63;11.00;;;8.80;44.60;;;;;;5113895;28;20486;-74
2022/03/11 05:32:54;;;;;;;12.27;10.57;;;8.80;44.80;;;;;;5113654;28;20845;-74
2022/03/11 05:35:20;;;;;;;15.33;10.77;;;8.80;44.50;;;;;;5113430;28;20453;-74
2022/03/11 05:37:47;;;;;;;12.23;10.20;;;8.70;44.70;;;;;;5113969;28;20439;-74
2022/03/11 05:40:14;;;;;;;11.67;9.63;;;8.70;44.90;;;;;;5113567;28;20858;-75
2022/03/11 05:42:41;;;;;;;11.40;10.00;;;8.70;45.20;;;;;;5113867;28;20446;-74
2022/03/11 05:45:09;;;;;;;15.10;10.53;;;8.70;45.40;;;;;;5113877;28;20443;-74
2022/03/11 05:47:36;;;;;;;13.00;9.70;;;8.60;45.20;;;;;;5113838;28;20441;-74
2022/03/11 05:50:04;;;;;;;14.43;10.73;;;8.70;45.20;;;;;;5113671;28;20485;-74
2022/03/11 05:52:31;;;;;;;16.77;11.63;;;8.60;45.00;;;;;;5113796;28;20965;-74
2022/03/11 05:54:58;;;;;;;17.17;11.70;;;8.60;44.90;;;;;;5113808;28;20451;-74
2022/03/11 05:57:25;;;;;;;19.60;12.30;;;8.50;45.00;;;;;;5113857;28;20423;-74
2022/03/11 05:59:52;;;;;;;16.63;11.70;;;8.40;45.30;;;;;;5113377;28;20919;-74
2022/03/11 06:02:18;;;;;;;14.43;11.30;;;8.40;45.40;;;;;;5113395;28;20893;-74
2022/03/11 06:04:45;;;;;;;14.50;11.70;;;8.40;45.70;;;;;;5113721;28;20476;-74
2022/03/11 06:07:13;;;;;;;15.60;11.83;;;8.40;45.60;;;;;;5113683;28;20453;-74
2022/03/11 06:09:40;;;;;;;16.33;12.33;;;8.40;45.70;;;;;;5113548;28;20489;-74
2022/03/11 06:12:08;;;;;;;18.33;11.80;;;8.40;45.90;;;;;;5113369;28;20516;-74
2022/03/11 06:14:35;;;;;;;14.83;10.90;;;8.40;45.70;;;;;;5113577;28;20446;-74
2022/03/11 06:17:01;;;;;;;14.43;12.60;;;8.40;45.50;;;;;;5113646;28;20560;-74
2022/03/11 06:19:28;;;;;;;14.70;11.50;;;8.40;45.60;;;;;;5113507;28;20439;-74
2022/03/11 06:21:57;;;;;;;14.03;12.00;;;8.30;45.50;;;;;;5113565;28;20447;-74
2022/03/11 06:24:25;;;;;;;17.10;12.30;;;8.30;45.60;;;;;;5113585;28;20434;-74
2022/03/11 06:26:52;;;;;;;16.67;12.07;;;8.20;45.90;;;;;;5113501;28;20453;-74
2022/03/11 06:29:19;;;;;;;15.00;12.07;;;8.20;46.00;;;;;;5113017;28;20466;-74
2022/03/11 06:31:46;;;;;;;17.07;11.73;;;8.20;46.00;;;;;;5113419;28;20434;-74
2022/03/11 06:34:12;;;;;;;16.27;12.27;;;8.20;45.90;;;;;;5113401;28;20463;-74
2022/03/11 06:36:39;;;;;;;18.67;12.60;;;8.20;45.90;;;;;;5113450;28;20427;-74
2022/03/11 06:39:07;;;;;;;17.60;12.20;;;8.10;46.30;;;;;;5113092;28;20959;-74
2022/03/11 06:41:35;;;;;;;20.00;14.00;;;8.10;46.60;;;;;;5113299;28;20473;-74
2022/03/11 06:44:02;;;;;;;14.10;10.57;;;8.00;47.00;;;;;;5113301;28;20819;-74
2022/03/11 06:46:29;;;;;;;17.83;13.07;;;8.00;46.40;;;;;;5114263;28;20450;-74
2022/03/11 06:48:56;;;;;;;17.13;13.27;;;8.00;46.60;;;;;;5117090;28;20484;-74
2022/03/11 06:51:22;;;;;;;19.00;13.07;;;8.00;46.60;;;;;;5116889;28;20486;-74
2022/03/11 06:53:49;;;;;;;17.30;12.07;;;8.10;46.60;;;;;;5116907;28;20537;-74
2022/03/11 06:56:16;;;;;;;17.70;12.47;;;8.10;46.60;;;;;;5116870;28;20443;-74
2022/03/11 06:58:44;;;;;;;19.53;14.27;;;8.10;46.60;;;;;;5116823;28;20447;-74
2022/03/11 07:01:11;;;;;;;22.13;13.63;;;8.10;46.70;;;;;;5116779;28;20460;-74
2022/03/11 07:03:38;;;;;;;16.90;13.00;;;8.10;46.70;;;;;;5116967;28;20432;-74
2022/03/11 07:06:04;;;;;;;19.77;12.33;;;8.10;46.80;;;;;;5116826;28;20443;-74
2022/03/11 07:08:31;;;;;;;17.60;12.50;;;8.10;47.30;;;;;;5117210;28;20435;-75
2022/03/11 07:10:58;;;;;;;22.67;14.13;;;8.10;47.20;;;;;;5116840;28;20488;-74
2022/03/11 07:13:26;;;;;;;16.60;12.80;;;8.20;47.00;;;;;;5116602;28;20454;-74
2022/03/11 07:15:56;;;;;;;20.73;14.87;;;8.20;46.70;;;;;;5116645;28;20431;-74
2022/03/11 07:18:22;;;;;;;18.40;14.80;;;8.20;46.60;;;;;;5116561;28;20446;-74
2022/03/11 07:20:49;;;;;;;16.93;13.73;;;8.30;46.60;;;;;;5116026;28;20833;-74
2022/03/11 07:23:16;;;;;;;16.97;13.60;;;8.40;46.70;;;;;;5116323;28;20450;-74
2022/03/11 07:25:43;;;;;;;15.73;13.33;;;8.40;46.60;;;;;;5116290;28;20520;-74
2022/03/11 07:28:11;;;;;;;22.53;14.00;;;8.50;46.40;;;;;;5116265;28;20537;-73
2022/03/11 07:30:38;;;;;;;19.23;14.00;;;8.50;46.50;;;;;;5116189;28;20474;-73
2022/03/11 07:33:07;;;;;;;17.73;13.87;;;8.50;46.50;;;;;;5116178;28;20460;-73
2022/03/11 07:35:37;;;;;;;18.80;15.90;;;8.60;46.30;;;;;;5115831;28;20924;-74
2022/03/11 07:38:04;;;;;;;19.70;14.60;;;8.60;46.40;;;;;;5116106;28;20446;-73
2022/03/11 07:40:31;;;;;;;18.60;14.50;;;8.70;46.30;;;;;;5115785;28;20482;-73
2022/03/11 07:42:58;;;;;;;19.63;14.20;;;8.70;45.80;;;;;;5116088;28;20427;-73
2022/03/11 07:45:26;;;;;;;23.10;15.77;;;8.70;45.60;;;;;;5116041;28;20488;-73
2022/03/11 07:47:52;;;;;;;19.63;15.53;;;8.70;45.90;;;;;;5116132;28;20809;-73
2022/03/11 07:50:20;;;;;;;17.43;14.93;;;8.70;45.40;;;;;;5115743;28;20482;-74
2022/03/11 07:52:47;;;;;;;17.80;14.87;;;8.60;45.80;;;;;;5115669;28;20931;-74
2022/03/11 07:55:14;;;;;;;17.90;14.60;;;8.60;45.70;;;;;;5115653;28;20447;-74
2022/03/11 07:57:41;;;;;;;25.17;16.50;;;8.70;46.10;;;;;;5115676;28;20450;-74
2022/03/11 08:00:10;;;;;;;21.97;14.87;;;8.80;45.90;;;;;;5115403;28;20960;-74
2022/03/11 08:02:36;;;;;;;18.73;14.87;;;8.90;46.10;;;;;;5115689;28;20442;-75
2022/03/11 08:05:04;;;;;;;20.47;14.60;;;9.00;45.70;;;;;;5115352;28;20442;-74
2022/03/11 08:07:34;;;;;;;18.90;14.90;;;9.10;45.30;;;;;;5115573;28;20435;-74
2022/03/11 08:10:00;;;;;;;20.80;15.20;;;9.20;44.80;;;;;;5115343;28;20524;-74
2022/03/11 08:12:27;;;;;;;20.93;15.77;;;9.30;45.00;;;;;;5115451;28;20439;-74
2022/03/11 08:14:54;;;;;;;19.83;16.30;;;9.30;44.90;;;;;;5115390;28;20451;-74
2022/03/11 08:17:23;;;;;;;24.87;16.33;;;9.30;44.50;;;;;;5115615;28;20450;-75
2022/03/11 08:19:49;;;;;;;21.17;16.40;;;9.40;44.70;;;;;;5115235;28;20470;-74
2022/03/11 08:22:16;;;;;;;23.13;15.57;;;9.50;44.40;;;;;;5115288;28;20470;-74
2022/03/11 08:24:44;;;;;;;21.83;15.73;;;9.50;44.60;;;;;;5115209;28;20435;-74
2022/03/11 08:27:11;;;;;;;22.90;16.97;;;9.60;44.50;;;;;;5115221;28;20446;-74
2022/03/11 08:29:38;;;;;;;19.27;14.43;;;9.60;44.20;;;;;;5115022;28;20512;-74
2022/03/11 08:32:06;;;;;;;22.60;16.43;;;9.60;44.40;;;;;;5115053;28;20458;-74
2022/03/11 08:34:33;;;;;;;20.67;15.33;;;9.70;44.40;;;;;;5114933;28;20447;-74
2022/03/11 08:37:00;;;;;;;20.07;14.50;;;9.70;44.10;;;;;;5114667;28;20932;-74
2022/03/11 08:39:26;;;;;;;24.23;14.90;;;9.80;43.90;;;;;;5114384;28;21113;-74
2022/03/11 08:41:54;;;;;;;19.77;16.17;;;9.80;44.00;;;;;;5114934;28;20424;-74
2022/03/11 08:44:22;;;;;;;21.37;16.17;;;9.80;43.60;;;;;;5114786;28;20454;-74
2022/03/11 08:46:49;;;;;;;20.27;16.23;;;9.80;43.10;;;;;;5114791;28;20482;-75
2022/03/11 08:49:15;;;;;;;22.13;15.43;;;9.70;43.20;;;;;;5114734;28;20442;-74
2022/03/11 08:51:43;;;;;;;17.67;15.10;;;9.70;43.80;;;;;;5114358;28;20987;-75
2022/03/11 08:54:10;;;;;;;19.10;15.57;;;9.70;44.00;;;;;;5114315;28;20482;-74
2022/03/11 08:56:38;;;;;;;21.63;16.63;;;9.80;43.80;;;;;;5114563;28;20443;-74
2022/03/11 08:59:07;;;;;;;19.90;14.43;;;9.80;42.90;;;;;;5114243;28;20818;-73
2022/03/11 09:01:34;;;;;;;20.43;17.00;;;9.90;43.50;;;;;;5114466;28;20516;-74
2022/03/11 09:04:00;;;;;;;28.03;16.83;;;9.90;43.60;;;;;;5114145;28;20442;-74
2022/03/11 09:06:27;;;;;;;19.60;17.10;;;9.90;42.90;;;;;;5114371;28;20442;-74
2022/03/11 09:08:54;;;;;;;19.10;16.30;;;9.90;43.40;;;;;;5113783;28;20937;-74
2022/03/11 09:11:21;;;;;;;19.10;15.93;;;10.00;42.30;;;;;;5114218;28;20479;-73
2022/03/11 09:13:49;;;;;;;18.27;15.17;;;9.90;42.30;;;;;;5114850;28;20442;-75
2022/03/11 09:16:17;;;;;;;21.60;15.90;;;9.90;43.50;;;;;;5114285;28;20450;-74
2022/03/11 09:18:44;;;;;;;18.37;15.10;;;10.00;42.60;;;;;;5114368;28;20532;-74
2022/03/11 09:21:11;;;;;;;21.57;16.83;;;10.10;42.90;;;;;;5113824;28;20826;-74
2022/03/11 09:23:39;;;;;;;25.00;16.00;;;10.20;42.20;;;;;;5114129;28;20455;-75
2022/03/11 09:26:06;;;;;;;27.00;18.50;;;10.30;42.10;;;;;;5113864;28;20879;-75
2022/03/11 09:28:32;;;;;;;21.10;17.33;;;10.40;41.10;;;;;;5114102;28;20439;-74
2022/03/11 09:31:01;;;;;;;21.80;16.63;;;10.40;41.30;;;;;;5113923;28;20513;-74
2022/03/11 09:33:29;;;;;;;19.03;15.00;;;10.50;41.80;;;;;;5114032;28;20500;-74
2022/03/11 09:35:55;;;;;;;23.83;15.87;;;10.70;41.60;;;;;;5113991;28;20443;-74
2022/03/11 09:38:22;;;;;;;22.10;15.60;;;10.80;41.80;;;;;;5113975;28;20808;-74
2022/03/11 09:40:52;;;;;;;21.73;16.50;;;10.80;40.80;;;;;;5113458;28;20475;-74
2022/03/11 09:43:20;;;;;;;23.90;15.60;;;10.90;41.10;;;;;;5113612;28;20447;-75
2022/03/11 09:45:47;;;;;;;21.40;17.20;;;11.10;41.20;;;;;;5113888;28;20504;-74
2022/03/11 09:48:16;;;;;;;21.00;17.27;;;11.30;41.20;;;;;;5114395;28;20427;-75
2022/03/11 09:50:44;;;;;;;19.83;15.43;;;11.40;40.40;;;;;;5113753;28;20478;-74
2022/03/11 09:53:12;;;;;;;17.30;15.50;;;11.60;40.20;;;;;;5113802;28;20439;-74
2022/03/11 09:55:39;;;;;;;20.37;16.30;;;11.70;39.90;;;;;;5113808;28;20443;-74
2022/03/11 09:58:06;;;;;;;20.40;16.20;;;11.90;39.20;;;;;;5114125;28;20443;-74
2022/03/11 10:00:33;;;;;;;19.40;15.90;;;12.00;39.50;;;;;;5113697;28;20467;-74
2022/03/11 10:03:00;;;;;;;20.93;16.43;;;12.20;38.50;;;;;;5113788;28;20446;-74
2022/03/11 10:05:46;;;;;;;21.53;16.23;;;12.40;37.80;;;;;;5113729;28;20454;-74
2022/03/11 10:08:14;;;;;;;25.50;15.33;;;12.50;37.60;;;;;;5113805;28;20426;-74
2022/03/11 10:10:41;;;;;;;16.47;14.67;;;12.60;37.30;;;;;;5113239;28;20489;-74
2022/03/11 10:13:08;;;;;;;21.93;16.17;;;12.70;36.90;;;;;;5113672;28;20455;-73
2022/03/11 10:15:35;;;;;;;20.10;15.40;;;13.10;37.40;;;;;;5113725;28;20454;-73
2022/03/11 10:18:03;;;;;;;21.40;16.27;;;13.50;37.10;;;;;;5113661;28;20792;-74
2022/03/11 10:20:31;;;;;;;18.90;16.20;;;13.90;36.30;;;;;;5113559;28;20474;-73
2022/03/11 10:22:59;;;;;;;22.13;17.00;;;14.20;35.20;;;;;;5116705;28;20932;-73
2022/03/11 10:25:28;;;;;;;17.83;15.90;;;14.60;33.30;;;;;;5117511;28;20434;-73
2022/03/11 10:28:01;;;;;;;19.67;15.50;;;14.70;32.80;;;;;;5117381;28;20492;-74
2022/03/11 10:30:30;;;;;;;23.30;16.27;;;14.90;33.80;;;;;;5117270;28;20463;-74
2022/03/11 10:33:00;;;;;;;18.23;15.53;;;15.10;33.10;;;;;;5117415;28;20503;-74
2022/03/11 10:35:31;;;;;;;19.90;16.20;;;15.40;33.30;;;;;;5117335;28;20446;-74
2022/03/11 10:38:01;;;;;;;19.53;15.93;;;15.90;32.50;;;;;;5117005;28;20928;-74
2022/03/11 10:40:29;;;;;;;19.33;16.33;;;16.40;31.70;;;;;;5117162;28;20471;-74
2022/03/11 10:43:17;;;;;;;18.20;16.30;;;16.90;30.60;;;;;;5116847;28;20445;-74
2022/03/11 10:45:52;;;;;;;20.73;17.80;;;17.40;29.80;;;;;;5117324;28;20426;-74
2022/03/11 10:48:41;;;;;;;19.63;17.53;;;17.60;29.00;;;;;;5117190;28;20422;-74
2022/03/11 10:51:11;;;;;;;23.70;16.40;;;17.80;28.40;;;;;;5116693;28;20831;-74
2022/03/11 10:53:40;;;;;;;22.23;16.47;;;18.10;29.20;;;;;;5117011;28;20438;-74
2022/03/11 10:56:09;;;;;;;18.47;16.47;;;18.50;28.00;;;;;;5116595;28;20946;-74
2022/03/11 10:58:36;;;;;;;17.20;15.47;;;18.90;28.10;;;;;;5116878;28;20446;-72
2022/03/11 11:01:03;;;;;;;20.73;16.40;;;19.50;27.90;;;;;;5116771;28;20455;-72
2022/03/11 11:03:32;;;;;;;19.40;16.20;;;20.10;27.20;;;;;;5116810;28;20453;-72
2022/03/11 11:05:59;;;;;;;21.63;16.00;;;20.60;26.50;;;;;;5116830;28;20534;-72
2022/03/11 11:08:27;;;;;;;16.87;15.27;;;21.10;25.60;;;;;;5116492;28;20955;-72
2022/03/11 11:10:56;;;;;;;17.60;15.80;;;21.60;25.30;;;;;;5116370;28;21018;-73
2022/03/11 11:13:23;;;;;;;18.27;16.37;;;21.90;24.70;;;;;;5116579;28;20454;-72
2022/03/11 11:15:53;;;;;;;17.20;15.40;;;22.20;24.00;;;;;;5116563;28;20785;-72
2022/03/11 11:18:25;;;;;;;20.40;16.00;;;22.50;23.80;;;;;;5116585;28;20477;-74
2022/03/11 11:20:54;;;;;;;19.10;17.10;;;22.60;23.60;;;;;;5116485;28;20551;-72
2022/03/11 11:23:25;;;;;;;17.70;15.80;;;22.80;23.80;;;;;;5116461;28;20495;-72
2022/03/11 11:25:52;;;;;;;17.47;15.67;;;23.20;23.80;;;;;;5116402;28;20440;-72
2022/03/11 11:28:22;;;;;;;17.47;15.33;;;23.60;23.40;;;;;;5116640;28;20438;-72
2022/03/11 11:30:53;;;;;;;18.63;16.83;;;23.90;22.80;;;;;;5116165;28;20463;-72
2022/03/11 11:33:21;;;;;;;17.63;16.00;;;24.30;22.40;;;;;;5115769;28;20842;-72
2022/03/11 11:35:47;;;;;;;19.07;15.80;;;24.20;22.10;;;;;;5116329;28;20449;-73
2022/03/11 11:38:31;;;;;;;16.70;15.00;;;24.20;22.40;;;;;;5116265;28;20443;-72
2022/03/11 11:40:59;;;;;;;18.47;16.67;;;24.40;22.50;;;;;;5115951;28;20944;-72
2022/03/11 11:43:29;;;;;;;17.57;15.67;;;24.60;22.20;;;;;;5116213;28;20461;-72
2022/03/11 11:46:16;;;;;;;16.60;14.90;;;24.90;22.10;;;;;;5116105;28;20451;-72
2022/03/11 11:49:07;;;;;;;19.83;16.50;;;25.20;21.60;;;;;;5116022;28;20484;-72
2022/03/11 11:51:59;;;;;;;18.53;16.73;;;25.60;21.00;;;;;;5115854;28;20486;-72
2022/03/11 11:54:41;;;;;;;18.60;15.90;;;25.90;20.70;;;;;;5116002;28;20521;-73
2022/03/11 11:57:15;;;;;;;19.10;17.20;;;26.20;20.60;;;;;;5115794;28;20419;-74
2022/03/11 11:59:43;;;;;;;21.67;17.13;;;26.50;20.20;;;;;;5115716;28;20540;-74
2022/03/11 12:02:39;;;;;;;19.00;17.03;;;26.70;20.10;;;;;;5115674;28;20446;-74
2022/03/11 12:05:51;;;;;;;17.70;16.10;;;26.90;20.60;;;;;;5116193;28;20439;-73
2022/03/11 12:08:49;;;;;;;19.83;17.73;;;27.40;20.00;;;;;;5115264;28;20807;-73
2022/03/11 12:11:38;;;;;;;20.67;16.30;;;28.00;19.40;;;;;;5115369;28;20535;-73
2022/03/11 12:14:05;;;;;;;17.50;15.90;;;28.50;18.90;;;;;;5115101;28;20447;-73
2022/03/11 12:17:00;;;;;;;18.53;16.77;;;28.80;18.70;;;;;;5115411;28;20450;-72
2022/03/11 12:19:37;;;;;;;18.17;16.30;;;29.20;18.60;;;;;;5114949;28;20431;-72
2022/03/11 12:22:30;;;;;;;17.87;16.13;;;29.60;18.10;;;;;;5115235;28;20438;-72
2022/03/11 12:25:06;;;;;;;18.17;16.47;;;29.90;17.90;;;;;;5114939;28;20436;-72
2022/03/11 12:27:59;;;;;;;17.90;16.10;;;30.30;17.80;;;;;;5115237;28;20487;-72
2022/03/11 12:30:26;;;;;;;19.70;16.27;;;30.60;17.50;;;;;;5115055;28;20494;-74
2022/03/11 12:32:54;;;;;;;18.23;16.63;;;30.60;16.80;;;;;;5114987;28;20482;-74
2022/03/11 12:35:22;;;;;;;17.73;16.10;;;30.60;17.00;;;;;;5115081;28;20446;-73
2022/03/11 12:37:49;;;;;;;17.70;16.27;;;30.50;17.00;;;;;;5114737;28;20895;-72
2022/03/11 12:40:16;;;;;;;16.70;15.20;;;30.60;17.30;;;;;;5114487;28;20470;-72
2022/03/11 12:42:44;;;;;;;18.27;16.67;;;30.90;16.80;;;;;;5114877;28;20434;-73
2022/03/11 12:45:13;;;;;;;19.30;16.80;;;31.20;16.70;;;;;;5113978;28;20512;-74